sensor_id;sensor_type;location;lat;lon;timestamp;P1;durP1;ratioP1;P2;durP2;ratioP2
57085;SDS011;42964;42.910;23.792;2023-12-28T00:01:23;101.80;;;54.08;;
57085;SDS011;42964;42.910;23.792;2023-12-28T00:06:23;96.70;;;57.35;;
57085;SDS011;42964;42.910;23.792;2023-12-28T00:11:22;97.65;;;58.45;;
57085;SDS011;42964;42.910;23.792;2023-12-28T00:16:22;103.75;;;61.40;;
57085;SDS011;42964;42.910;23.792;2023-12-28T00:21:20;103.22;;;60.47;;
57085;SDS011;42964;42.910;23.792;2023-12-28T00:26:19;106.38;;;61.38;;
57085;SDS011;42964;42.910;23.792;2023-12-28T00:31:20;110.30;;;54.72;;
57085;SDS011;42964;42.910;23.792;2023-12-28T00:36:19;122.70;;;53.80;;
57085;SDS011;42964;42.910;23.792;2023-12-28T00:41:19;112.32;;;48.30;;
57085;SDS011;42964;42.910;23.792;2023-12-28T00:46:18;66.50;;;40.53;;
57085;SDS011;42964;42.910;23.792;2023-12-28T00:51:17;69.60;;;39.65;;
57085;SDS011;42964;42.910;23.792;2023-12-28T00:56:15;48.55;;;32.03;;
57085;SDS011;42964;42.910;23.792;2023-12-28T01:01:15;44.88;;;28.73;;
57085;SDS011;42964;42.910;23.792;2023-12-28T01:06:14;42.42;;;26.35;;
57085;SDS011;42964;42.910;23.792;2023-12-28T01:11:12;45.15;;;27.83;;
57085;SDS011;42964;42.910;23.792;2023-12-28T01:16:12;42.05;;;26.13;;
57085;SDS011;42964;42.910;23.792;2023-12-28T01:21:12;50.85;;;30.90;;
57085;SDS011;42964;42.910;23.792;2023-12-28T01:26:14;64.68;;;40.90;;
57085;SDS011;42964;42.910;23.792;2023-12-28T01:31:13;65.35;;;39.22;;
57085;SDS011;42964;42.910;23.792;2023-12-28T01:36:18;74.20;;;40.45;;
57085;SDS011;42964;42.910;23.792;2023-12-28T01:41:18;71.10;;;41.63;;
57085;SDS011;42964;42.910;23.792;2023-12-28T01:46:17;74.43;;;41.78;;
57085;SDS011;42964;42.910;23.792;2023-12-28T01:51:17;60.30;;;34.92;;
57085;SDS011;42964;42.910;23.792;2023-12-28T01:56:19;51.30;;;30.35;;
57085;SDS011;42964;42.910;23.792;2023-12-28T02:01:18;50.55;;;29.20;;
57085;SDS011;42964;42.910;23.792;2023-12-28T02:06:18;54.13;;;29.98;;
57085;SDS011;42964;42.910;23.792;2023-12-28T02:11:21;52.03;;;30.25;;
57085;SDS011;42964;42.910;23.792;2023-12-28T02:16:21;74.53;;;40.10;;
57085;SDS011;42964;42.910;23.792;2023-12-28T02:21:27;61.38;;;34.90;;
57085;SDS011;42964;42.910;23.792;2023-12-28T02:31:35;56.45;;;31.60;;
57085;SDS011;42964;42.910;23.792;2023-12-28T02:36:38;73.18;;;39.15;;
57085;SDS011;42964;42.910;23.792;2023-12-28T02:41:41;62.10;;;37.22;;
57085;SDS011;42964;42.910;23.792;2023-12-28T02:46:42;43.92;;;28.95;;
57085;SDS011;42964;42.910;23.792;2023-12-28T02:51:41;41.90;;;25.17;;
57085;SDS011;42964;42.910;23.792;2023-12-28T02:56:41;36.50;;;23.40;;
57085;SDS011;42964;42.910;23.792;2023-12-28T03:01:40;36.60;;;22.00;;
57085;SDS011;42964;42.910;23.792;2023-12-28T03:06:39;33.67;;;22.05;;
57085;SDS011;42964;42.910;23.792;2023-12-28T03:11:39;33.63;;;21.50;;
57085;SDS011;42964;42.910;23.792;2023-12-28T03:16:38;37.25;;;23.90;;
57085;SDS011;42964;42.910;23.792;2023-12-28T03:21:40;36.22;;;24.52;;
57085;SDS011;42964;42.910;23.792;2023-12-28T03:26:39;37.72;;;26.00;;
57085;SDS011;42964;42.910;23.792;2023-12-28T03:31:39;42.75;;;26.23;;
57085;SDS011;42964;42.910;23.792;2023-12-28T03:36:38;40.45;;;26.85;;
57085;SDS011;42964;42.910;23.792;2023-12-28T03:41:37;41.38;;;26.02;;
57085;SDS011;42964;42.910;23.792;2023-12-28T03:46:36;42.55;;;26.02;;
57085;SDS011;42964;42.910;23.792;2023-12-28T03:51:35;52.80;;;34.22;;
57085;SDS011;42964;42.910;23.792;2023-12-28T04:01:34;59.47;;;35.25;;
57085;SDS011;42964;42.910;23.792;2023-12-28T04:06:33;57.75;;;34.67;;
57085;SDS011;42964;42.910;23.792;2023-12-28T04:11:32;49.28;;;31.45;;
57085;SDS011;42964;42.910;23.792;2023-12-28T04:16:31;43.05;;;27.13;;
57085;SDS011;42964;42.910;23.792;2023-12-28T04:21:29;47.88;;;28.85;;
57085;SDS011;42964;42.910;23.792;2023-12-28T04:26:28;51.30;;;30.58;;
57085;SDS011;42964;42.910;23.792;2023-12-28T04:31:28;58.13;;;31.05;;
57085;SDS011;42964;42.910;23.792;2023-12-28T04:36:27;51.63;;;29.60;;
57085;SDS011;42964;42.910;23.792;2023-12-28T04:41:27;55.40;;;29.40;;
57085;SDS011;42964;42.910;23.792;2023-12-28T04:46:26;54.78;;;32.92;;
57085;SDS011;42964;42.910;23.792;2023-12-28T04:51:25;56.13;;;31.92;;
57085;SDS011;42964;42.910;23.792;2023-12-28T04:56:24;57.78;;;34.13;;
57085;SDS011;42964;42.910;23.792;2023-12-28T05:01:23;65.05;;;37.78;;
57085;SDS011;42964;42.910;23.792;2023-12-28T05:06:22;53.63;;;32.70;;
57085;SDS011;42964;42.910;23.792;2023-12-28T05:11:21;55.72;;;31.95;;
57085;SDS011;42964;42.910;23.792;2023-12-28T05:16:20;46.67;;;29.63;;
57085;SDS011;42964;42.910;23.792;2023-12-28T05:21:19;52.08;;;28.20;;
57085;SDS011;42964;42.910;23.792;2023-12-28T05:26:19;46.78;;;29.73;;
57085;SDS011;42964;42.910;23.792;2023-12-28T05:31:18;45.55;;;28.90;;
57085;SDS011;42964;42.910;23.792;2023-12-28T05:36:17;50.22;;;30.58;;
57085;SDS011;42964;42.910;23.792;2023-12-28T05:41:16;46.20;;;27.60;;
57085;SDS011;42964;42.910;23.792;2023-12-28T05:51:14;46.00;;;30.20;;
57085;SDS011;42964;42.910;23.792;2023-12-28T05:56:13;47.95;;;31.17;;
57085;SDS011;42964;42.910;23.792;2023-12-28T06:01:12;54.90;;;34.22;;
57085;SDS011;42964;42.910;23.792;2023-12-28T06:06:11;67.80;;;43.63;;
57085;SDS011;42964;42.910;23.792;2023-12-28T06:11:10;76.22;;;46.72;;
57085;SDS011;42964;42.910;23.792;2023-12-28T06:21:08;101.30;;;64.20;;
57085;SDS011;42964;42.910;23.792;2023-12-28T06:26:07;109.38;;;62.85;;
57085;SDS011;42964;42.910;23.792;2023-12-28T06:31:06;114.55;;;65.28;;
57085;SDS011;42964;42.910;23.792;2023-12-28T06:36:05;111.55;;;67.22;;
57085;SDS011;42964;42.910;23.792;2023-12-28T06:41:11;109.03;;;63.63;;
57085;SDS011;42964;42.910;23.792;2023-12-28T06:46:11;113.68;;;65.53;;
57085;SDS011;42964;42.910;23.792;2023-12-28T06:51:10;98.15;;;58.30;;
57085;SDS011;42964;42.910;23.792;2023-12-28T06:56:15;66.82;;;43.90;;
57085;SDS011;42964;42.910;23.792;2023-12-28T07:01:14;120.50;;;66.85;;
57085;SDS011;42964;42.910;23.792;2023-12-28T07:06:13;126.82;;;73.30;;
57085;SDS011;42964;42.910;23.792;2023-12-28T07:11:12;132.27;;;77.65;;
57085;SDS011;42964;42.910;23.792;2023-12-28T07:16:12;120.15;;;72.28;;
57085;SDS011;42964;42.910;23.792;2023-12-28T07:21:11;114.20;;;70.05;;
57085;SDS011;42964;42.910;23.792;2023-12-28T07:26:10;89.55;;;55.90;;
57085;SDS011;42964;42.910;23.792;2023-12-28T07:31:09;111.68;;;70.30;;
57085;SDS011;42964;42.910;23.792;2023-12-28T07:41:07;99.88;;;59.60;;
57085;SDS011;42964;42.910;23.792;2023-12-28T07:46:06;94.00;;;55.25;;
57085;SDS011;42964;42.910;23.792;2023-12-28T07:56:04;102.38;;;56.70;;
57085;SDS011;42964;42.910;23.792;2023-12-28T08:01:03;117.75;;;72.30;;
57085;SDS011;42964;42.910;23.792;2023-12-28T08:06:03;137.10;;;82.35;;
57085;SDS011;42964;42.910;23.792;2023-12-28T08:11:02;111.95;;;72.80;;
57085;SDS011;42964;42.910;23.792;2023-12-28T08:16:01;116.18;;;65.85;;
57085;SDS011;42964;42.910;23.792;2023-12-28T08:21:01;97.78;;;60.08;;
57085;SDS011;42964;42.910;23.792;2023-12-28T08:26:00;82.97;;;51.42;;
57085;SDS011;42964;42.910;23.792;2023-12-28T08:30:59;117.13;;;72.38;;
57085;SDS011;42964;42.910;23.792;2023-12-28T08:35:58;102.28;;;63.67;;
57085;SDS011;42964;42.910;23.792;2023-12-28T08:40:58;89.50;;;56.97;;
57085;SDS011;42964;42.910;23.792;2023-12-28T08:45:57;107.20;;;69.25;;
57085;SDS011;42964;42.910;23.792;2023-12-28T08:50:56;109.82;;;69.28;;
57085;SDS011;42964;42.910;23.792;2023-12-28T08:55:55;115.47;;;75.05;;
57085;SDS011;42964;42.910;23.792;2023-12-28T09:00:54;125.68;;;83.05;;
57085;SDS011;42964;42.910;23.792;2023-12-28T09:05:53;107.55;;;68.32;;
57085;SDS011;42964;42.910;23.792;2023-12-28T09:10:52;81.47;;;52.85;;
57085;SDS011;42964;42.910;23.792;2023-12-28T09:15:51;66.00;;;43.80;;
57085;SDS011;42964;42.910;23.792;2023-12-28T09:20:50;48.17;;;33.90;;
57085;SDS011;42964;42.910;23.792;2023-12-28T09:25:50;54.50;;;37.63;;
57085;SDS011;42964;42.910;23.792;2023-12-28T09:30:49;67.03;;;46.00;;
57085;SDS011;42964;42.910;23.792;2023-12-28T09:35:49;67.82;;;46.22;;
57085;SDS011;42964;42.910;23.792;2023-12-28T09:40:51;68.93;;;45.67;;
57085;SDS011;42964;42.910;23.792;2023-12-28T09:45:53;69.00;;;46.22;;
57085;SDS011;42964;42.910;23.792;2023-12-28T09:50:53;68.85;;;47.72;;
57085;SDS011;42964;42.910;23.792;2023-12-28T09:55:53;70.93;;;48.97;;
57085;SDS011;42964;42.910;23.792;2023-12-28T10:00:52;72.97;;;49.33;;
57085;SDS011;42964;42.910;23.792;2023-12-28T10:05:51;84.88;;;58.53;;
57085;SDS011;42964;42.910;23.792;2023-12-28T10:10:50;98.90;;;65.50;;
57085;SDS011;42964;42.910;23.792;2023-12-28T10:15:52;95.20;;;64.28;;
57085;SDS011;42964;42.910;23.792;2023-12-28T10:20:52;89.05;;;60.90;;
57085;SDS011;42964;42.910;23.792;2023-12-28T10:25:51;97.57;;;65.32;;
57085;SDS011;42964;42.910;23.792;2023-12-28T10:30:55;92.90;;;63.60;;
57085;SDS011;42964;42.910;23.792;2023-12-28T10:35:57;90.03;;;60.90;;
57085;SDS011;42964;42.910;23.792;2023-12-28T10:40:57;76.28;;;54.22;;
57085;SDS011;42964;42.910;23.792;2023-12-28T10:45:56;74.53;;;50.85;;
57085;SDS011;42964;42.910;23.792;2023-12-28T11:01:26;67.57;;;47.92;;
57085;SDS011;42964;42.910;23.792;2023-12-28T11:06:30;63.63;;;44.00;;
57085;SDS011;42964;42.910;23.792;2023-12-28T11:11:31;56.38;;;41.97;;
57085;SDS011;42964;42.910;23.792;2023-12-28T11:16:31;60.38;;;42.67;;
57085;SDS011;42964;42.910;23.792;2023-12-28T11:21:32;60.85;;;44.38;;
57085;SDS011;42964;42.910;23.792;2023-12-28T11:26:32;62.45;;;42.45;;
57085;SDS011;42964;42.910;23.792;2023-12-28T11:31:34;58.33;;;40.10;;
57085;SDS011;42964;42.910;23.792;2023-12-28T11:36:34;52.42;;;38.83;;
57085;SDS011;42964;42.910;23.792;2023-12-28T11:41:35;52.28;;;37.25;;
57085;SDS011;42964;42.910;23.792;2023-12-28T11:46:35;44.78;;;33.88;;
57085;SDS011;42964;42.910;23.792;2023-12-28T11:51:39;47.67;;;34.40;;
57085;SDS011;42964;42.910;23.792;2023-12-28T11:56:39;53.17;;;34.65;;
57085;SDS011;42964;42.910;23.792;2023-12-28T12:01:38;51.78;;;35.58;;
57085;SDS011;42964;42.910;23.792;2023-12-28T12:06:37;47.88;;;35.28;;
57085;SDS011;42964;42.910;23.792;2023-12-28T12:11:35;40.65;;;31.40;;
57085;SDS011;42964;42.910;23.792;2023-12-28T12:16:36;47.38;;;33.95;;
57085;SDS011;42964;42.910;23.792;2023-12-28T12:21:37;37.65;;;28.10;;
57085;SDS011;42964;42.910;23.792;2023-12-28T12:26:36;35.33;;;27.40;;
57085;SDS011;42964;42.910;23.792;2023-12-28T12:31:35;31.77;;;24.63;;
57085;SDS011;42964;42.910;23.792;2023-12-28T12:36:36;35.60;;;27.60;;
57085;SDS011;42964;42.910;23.792;2023-12-28T12:41:36;34.28;;;27.90;;
57085;SDS011;42964;42.910;23.792;2023-12-28T12:46:36;32.20;;;25.33;;
57085;SDS011;42964;42.910;23.792;2023-12-28T12:51:35;29.52;;;22.20;;
57085;SDS011;42964;42.910;23.792;2023-12-28T12:56:34;27.38;;;19.25;;
57085;SDS011;42964;42.910;23.792;2023-12-28T13:06:33;45.70;;;32.95;;
57085;SDS011;42964;42.910;23.792;2023-12-28T13:11:33;43.70;;;30.25;;
57085;SDS011;42964;42.910;23.792;2023-12-28T13:16:33;20.67;;;14.57;;
57085;SDS011;42964;42.910;23.792;2023-12-28T13:26:30;16.33;;;10.95;;
57085;SDS011;42964;42.910;23.792;2023-12-28T13:36:28;17.45;;;12.07;;
57085;SDS011;42964;42.910;23.792;2023-12-28T13:41:27;20.17;;;12.68;;
57085;SDS011;42964;42.910;23.792;2023-12-28T13:51:25;20.52;;;13.93;;
57085;SDS011;42964;42.910;23.792;2023-12-28T13:56:24;26.05;;;15.98;;
57085;SDS011;42964;42.910;23.792;2023-12-28T14:06:22;16.83;;;12.68;;
57085;SDS011;42964;42.910;23.792;2023-12-28T14:11:21;14.57;;;12.07;;
57085;SDS011;42964;42.910;23.792;2023-12-28T14:21:18;19.58;;;14.13;;
57085;SDS011;42964;42.910;23.792;2023-12-28T14:26:18;20.35;;;14.13;;
57085;SDS011;42964;42.910;23.792;2023-12-28T14:31:18;22.70;;;13.75;;
57085;SDS011;42964;42.910;23.792;2023-12-28T14:41:19;31.58;;;19.80;;
57085;SDS011;42964;42.910;23.792;2023-12-28T14:51:18;29.50;;;20.80;;
57085;SDS011;42964;42.910;23.792;2023-12-28T14:56:17;29.88;;;24.48;;
57085;SDS011;42964;42.910;23.792;2023-12-28T15:01:17;17.08;;;10.68;;
57085;SDS011;42964;42.910;23.792;2023-12-28T15:06:18;14.73;;;11.50;;
57085;SDS011;42964;42.910;23.792;2023-12-28T15:11:17;16.98;;;10.98;;
57085;SDS011;42964;42.910;23.792;2023-12-28T15:16:17;16.40;;;11.82;;
57085;SDS011;42964;42.910;23.792;2023-12-28T15:26:15;17.05;;;11.50;;
57085;SDS011;42964;42.910;23.792;2023-12-28T15:31:15;22.35;;;16.60;;
57085;SDS011;42964;42.910;23.792;2023-12-28T15:36:14;15.60;;;11.32;;
57085;SDS011;42964;42.910;23.792;2023-12-28T15:41:14;56.67;;;39.97;;
57085;SDS011;42964;42.910;23.792;2023-12-28T15:46:13;25.48;;;18.00;;
57085;SDS011;42964;42.910;23.792;2023-12-28T15:51:12;18.02;;;14.38;;
57085;SDS011;42964;42.910;23.792;2023-12-28T15:56:11;20.02;;;14.75;;
57085;SDS011;42964;42.910;23.792;2023-12-28T16:01:10;54.97;;;28.77;;
57085;SDS011;42964;42.910;23.792;2023-12-28T16:06:09;35.72;;;22.33;;
57085;SDS011;42964;42.910;23.792;2023-12-28T16:11:09;37.08;;;24.20;;
57085;SDS011;42964;42.910;23.792;2023-12-28T16:16:08;51.60;;;25.27;;
57085;SDS011;42964;42.910;23.792;2023-12-28T16:21:09;43.60;;;25.77;;
57085;SDS011;42964;42.910;23.792;2023-12-28T16:26:08;53.83;;;37.50;;
57085;SDS011;42964;42.910;23.792;2023-12-28T16:31:08;65.53;;;39.80;;
57085;SDS011;42964;42.910;23.792;2023-12-28T16:36:07;47.35;;;34.72;;
57085;SDS011;42964;42.910;23.792;2023-12-28T16:46:05;33.53;;;26.20;;
57085;SDS011;42964;42.910;23.792;2023-12-28T16:51:04;30.33;;;23.25;;
57085;SDS011;42964;42.910;23.792;2023-12-28T16:56:03;46.20;;;30.63;;
57085;SDS011;42964;42.910;23.792;2023-12-28T17:01:02;38.17;;;25.65;;
57085;SDS011;42964;42.910;23.792;2023-12-28T17:06:01;22.50;;;16.40;;
57085;SDS011;42964;42.910;23.792;2023-12-28T17:11:01;9.82;;;7.40;;
57085;SDS011;42964;42.910;23.792;2023-12-28T17:16:00;13.60;;;7.65;;
57085;SDS011;42964;42.910;23.792;2023-12-28T17:21:00;10.13;;;6.72;;
57085;SDS011;42964;42.910;23.792;2023-12-28T17:26:02;11.18;;;6.82;;
57085;SDS011;42964;42.910;23.792;2023-12-28T17:31:02;15.63;;;7.38;;
57085;SDS011;42964;42.910;23.792;2023-12-28T17:36:06;9.80;;;6.10;;
57085;SDS011;42964;42.910;23.792;2023-12-28T17:41:06;9.63;;;7.55;;
57085;SDS011;42964;42.910;23.792;2023-12-28T17:51:34;8.70;;;7.28;;
57085;SDS011;42964;42.910;23.792;2023-12-28T18:01:32;11.38;;;8.23;;
57085;SDS011;42964;42.910;23.792;2023-12-28T18:06:31;7.85;;;6.88;;
57085;SDS011;42964;42.910;23.792;2023-12-28T18:11:30;10.18;;;7.90;;
57085;SDS011;42964;42.910;23.792;2023-12-28T18:16:29;8.77;;;7.30;;
57085;SDS011;42964;42.910;23.792;2023-12-28T18:21:28;7.85;;;6.28;;
57085;SDS011;42964;42.910;23.792;2023-12-28T18:26:27;87.95;;;39.53;;
57085;SDS011;42964;42.910;23.792;2023-12-28T18:31:26;10.13;;;6.88;;
57085;SDS011;42964;42.910;23.792;2023-12-28T18:36:25;27.40;;;18.88;;
57085;SDS011;42964;42.910;23.792;2023-12-28T18:41:24;17.27;;;10.43;;
57085;SDS011;42964;42.910;23.792;2023-12-28T18:46:23;9.95;;;7.82;;
57085;SDS011;42964;42.910;23.792;2023-12-28T18:51:22;18.38;;;15.75;;
57085;SDS011;42964;42.910;23.792;2023-12-28T18:56:21;14.40;;;9.50;;
57085;SDS011;42964;42.910;23.792;2023-12-28T19:01:20;19.15;;;17.02;;
57085;SDS011;42964;42.910;23.792;2023-12-28T19:06:19;28.48;;;20.95;;
57085;SDS011;42964;42.910;23.792;2023-12-28T19:11:18;27.73;;;22.42;;
57085;SDS011;42964;42.910;23.792;2023-12-28T19:16:17;34.65;;;23.77;;
57085;SDS011;42964;42.910;23.792;2023-12-28T19:21:20;32.38;;;24.42;;
57085;SDS011;42964;42.910;23.792;2023-12-28T19:26:20;32.40;;;23.95;;
57085;SDS011;42964;42.910;23.792;2023-12-28T19:31:19;37.85;;;27.15;;
57085;SDS011;42964;42.910;23.792;2023-12-28T19:36:18;19.58;;;15.07;;
57085;SDS011;42964;42.910;23.792;2023-12-28T19:46:17;36.83;;;23.90;;
57085;SDS011;42964;42.910;23.792;2023-12-28T19:51:19;16.60;;;12.52;;
57085;SDS011;42964;42.910;23.792;2023-12-28T19:56:18;13.13;;;8.80;;
57085;SDS011;42964;42.910;23.792;2023-12-28T20:01:17;8.35;;;6.55;;
57085;SDS011;42964;42.910;23.792;2023-12-28T20:06:16;7.60;;;5.78;;
57085;SDS011;42964;42.910;23.792;2023-12-28T20:11:15;6.95;;;5.68;;
57085;SDS011;42964;42.910;23.792;2023-12-28T20:16:14;7.50;;;5.28;;
57085;SDS011;42964;42.910;23.792;2023-12-28T20:21:16;24.77;;;16.58;;
57085;SDS011;42964;42.910;23.792;2023-12-28T20:26:15;30.35;;;20.30;;
57085;SDS011;42964;42.910;23.792;2023-12-28T20:31:17;13.48;;;9.32;;
57085;SDS011;42964;42.910;23.792;2023-12-28T20:36:17;16.67;;;10.60;;
57085;SDS011;42964;42.910;23.792;2023-12-28T20:41:16;26.98;;;19.75;;
57085;SDS011;42964;42.910;23.792;2023-12-28T20:46:15;21.63;;;14.05;;
57085;SDS011;42964;42.910;23.792;2023-12-28T20:51:14;14.55;;;10.40;;
57085;SDS011;42964;42.910;23.792;2023-12-28T20:56:13;10.60;;;8.63;;
57085;SDS011;42964;42.910;23.792;2023-12-28T21:01:13;6.97;;;6.28;;
57085;SDS011;42964;42.910;23.792;2023-12-28T21:06:12;10.23;;;6.78;;
57085;SDS011;42964;42.910;23.792;2023-12-28T21:11:12;7.63;;;5.25;;
57085;SDS011;42964;42.910;23.792;2023-12-28T21:16:11;16.55;;;11.07;;
57085;SDS011;42964;42.910;23.792;2023-12-28T21:21:10;12.55;;;8.15;;
57085;SDS011;42964;42.910;23.792;2023-12-28T21:26:09;11.73;;;8.00;;
57085;SDS011;42964;42.910;23.792;2023-12-28T21:31:08;15.90;;;9.02;;
57085;SDS011;42964;42.910;23.792;2023-12-28T21:36:07;30.67;;;17.45;;
57085;SDS011;42964;42.910;23.792;2023-12-28T21:41:06;24.02;;;17.23;;
57085;SDS011;42964;42.910;23.792;2023-12-28T21:46:05;19.38;;;14.68;;
57085;SDS011;42964;42.910;23.792;2023-12-28T21:51:05;16.05;;;12.70;;
57085;SDS011;42964;42.910;23.792;2023-12-28T21:56:04;28.05;;;19.42;;
57085;SDS011;42964;42.910;23.792;2023-12-28T22:01:03;29.20;;;19.95;;
57085;SDS011;42964;42.910;23.792;2023-12-28T22:06:02;25.27;;;17.88;;
57085;SDS011;42964;42.910;23.792;2023-12-28T22:16:02;20.75;;;15.45;;
57085;SDS011;42964;42.910;23.792;2023-12-28T22:21:02;20.60;;;14.25;;
57085;SDS011;42964;42.910;23.792;2023-12-28T22:26:01;23.73;;;17.35;;
57085;SDS011;42964;42.910;23.792;2023-12-28T22:31:00;26.25;;;17.90;;
57085;SDS011;42964;42.910;23.792;2023-12-28T22:36:00;38.28;;;26.23;;
57085;SDS011;42964;42.910;23.792;2023-12-28T22:40:59;32.05;;;21.02;;
57085;SDS011;42964;42.910;23.792;2023-12-28T22:45:58;30.73;;;20.20;;
57085;SDS011;42964;42.910;23.792;2023-12-28T22:50:57;37.75;;;24.83;;
57085;SDS011;42964;42.910;23.792;2023-12-28T22:55:56;40.53;;;28.70;;
57085;SDS011;42964;42.910;23.792;2023-12-28T23:00:55;48.38;;;31.38;;
57085;SDS011;42964;42.910;23.792;2023-12-28T23:05:54;50.17;;;32.40;;
57085;SDS011;42964;42.910;23.792;2023-12-28T23:10:53;63.13;;;39.67;;
57085;SDS011;42964;42.910;23.792;2023-12-28T23:15:53;59.53;;;35.72;;
57085;SDS011;42964;42.910;23.792;2023-12-28T23:20:52;40.30;;;24.70;;
57085;SDS011;42964;42.910;23.792;2023-12-28T23:25:51;36.60;;;24.10;;
57085;SDS011;42964;42.910;23.792;2023-12-28T23:30:50;38.17;;;21.80;;
57085;SDS011;42964;42.910;23.792;2023-12-28T23:35:49;46.95;;;28.23;;
57085;SDS011;42964;42.910;23.792;2023-12-28T23:40:48;69.13;;;37.17;;
57085;SDS011;42964;42.910;23.792;2023-12-28T23:45:47;68.18;;;38.38;;
57085;SDS011;42964;42.910;23.792;2023-12-28T23:50:46;57.83;;;33.42;;
57085;SDS011;42964;42.910;23.792;2023-12-28T23:55:45;58.45;;;31.33;;
